createdAt,value
2018-05-17T00:00:58.506Z,9.65
2018-05-17T00:03:24.729Z,9.38
2018-05-17T00:05:50.970Z,9.52
2018-05-17T00:08:17.198Z,8.52
2018-05-17T00:10:43.952Z,9.02
2018-05-17T00:13:10.216Z,8.60
2018-05-17T00:15:36.489Z,9.15
2018-05-17T00:18:02.737Z,8.70
2018-05-17T00:20:28.993Z,8.63
2018-05-17T00:22:55.205Z,8.27
2018-05-17T00:25:21.849Z,9.15
2018-05-17T00:27:48.743Z,8.57
2018-05-17T00:30:15.574Z,8.25
2018-05-17T00:32:41.837Z,8.32
2018-05-17T00:35:08.059Z,8.23
2018-05-17T00:37:35.125Z,8.07
2018-05-17T00:40:01.377Z,8.75
2018-05-17T00:42:27.598Z,8.25
2018-05-17T00:44:53.874Z,9.98
2018-05-17T00:47:20.084Z,8.60
2018-05-17T00:49:46.305Z,9.02
2018-05-17T00:52:12.550Z,8.27
2018-05-17T00:54:38.788Z,8.45
2018-05-17T00:57:05.692Z,8.02
2018-05-17T00:59:31.946Z,8.50
2018-05-17T01:01:58.151Z,8.00
2018-05-17T01:04:24.373Z,8.55
2018-05-17T01:06:51.278Z,9.05
2018-05-17T01:09:17.489Z,8.23
2018-05-17T01:11:43.729Z,9.20
2018-05-17T01:14:09.974Z,9.05
2018-05-17T01:16:36.578Z,8.77
2018-05-17T01:19:02.830Z,10.38
2018-05-17T01:21:29.087Z,10.02
2018-05-17T01:23:55.341Z,8.85
2018-05-17T01:26:21.569Z,10.18
2018-05-17T01:28:47.792Z,10.60
2018-05-17T01:31:14.030Z,10.27
2018-05-17T01:33:40.270Z,8.75
2018-05-17T01:36:06.512Z,9.43
2018-05-17T01:38:32.764Z,9.30
2018-05-17T01:40:58.979Z,9.50
2018-05-17T01:43:25.224Z,10.07
2018-05-17T01:45:51.449Z,10.48
2018-05-17T01:48:17.660Z,10.48
2018-05-17T01:50:43.889Z,10.35
2018-05-17T01:53:10.101Z,10.00
2018-05-17T01:55:36.348Z,10.27
2018-05-17T01:58:02.642Z,10.85
2018-05-17T02:00:28.868Z,9.85
2018-05-17T02:02:55.128Z,10.82
2018-05-17T02:05:21.366Z,10.75
2018-05-17T02:07:47.594Z,11.18
2018-05-17T02:10:14.252Z,11.43
2018-05-17T02:12:40.885Z,11.80
2018-05-17T02:15:07.137Z,13.07
2018-05-17T02:17:33.375Z,12.73
2018-05-17T02:19:59.619Z,11.90
2018-05-17T02:22:25.840Z,11.75
2018-05-17T02:24:52.072Z,10.93
2018-05-17T02:27:18.319Z,11.18
2018-05-17T02:29:44.551Z,11.10
2018-05-17T02:32:10.762Z,11.48
2018-05-17T02:34:36.987Z,12.52
2018-05-17T02:37:03.223Z,11.38
2018-05-17T02:39:29.447Z,11.32
2018-05-17T02:41:55.696Z,11.07
2018-05-17T02:44:21.905Z,9.77
2018-05-17T02:46:48.137Z,10.30
2018-05-17T02:49:14.413Z,10.88
2018-05-17T02:51:40.626Z,10.32
2018-05-17T02:54:06.850Z,11.70
2018-05-17T02:56:33.091Z,10.93
2018-05-17T02:58:59.687Z,11.38
2018-05-17T03:01:25.905Z,12.23
2018-05-17T03:03:52.154Z,11.75
2018-05-17T03:06:18.374Z,11.80
2018-05-17T03:08:44.606Z,11.85
2018-05-17T03:11:10.850Z,13.48
2018-05-17T03:13:37.050Z,12.75
2018-05-17T03:16:03.318Z,13.05
2018-05-17T03:18:29.530Z,14.68
2018-05-17T03:20:56.584Z,15.10
2018-05-17T03:23:22.807Z,15.88
2018-05-17T03:25:49.010Z,14.70
2018-05-17T03:28:22.418Z,17.12
2018-05-17T03:30:48.699Z,17.05
2018-05-17T03:33:14.917Z,16.55
2018-05-17T03:35:41.491Z,17.35
2018-05-17T03:38:07.724Z,17.25
2018-05-17T03:40:33.966Z,17.90
2018-05-17T03:43:00.171Z,18.25
2018-05-17T03:45:26.408Z,15.07
2018-05-17T03:47:52.659Z,17.05
2018-05-17T03:50:18.935Z,18.80
2018-05-17T03:52:45.149Z,20.85
2018-05-17T03:55:11.792Z,18.12
2018-05-17T03:57:38.033Z,18.15
2018-05-17T04:00:04.285Z,21.33
2018-05-17T04:02:42.811Z,20.02
2018-05-17T04:05:21.223Z,20.77
2018-05-17T04:07:47.487Z,21.40
2018-05-17T04:10:13.742Z,22.62
2018-05-17T04:12:39.964Z,21.37
2018-05-17T04:15:06.633Z,22.05
2018-05-17T04:17:33.515Z,22.15
2018-05-17T04:19:59.778Z,22.00
2018-05-17T04:22:26.010Z,23.50
2018-05-17T04:24:52.301Z,28.75
2018-05-17T04:27:19.109Z,21.73
2018-05-17T04:29:45.336Z,20.92
2018-05-17T04:32:11.640Z,19.75
2018-05-17T04:34:37.859Z,20.40
2018-05-17T04:37:04.480Z,22.42
2018-05-17T04:39:31.103Z,18.40
2018-05-17T04:41:57.389Z,20.73
2018-05-17T04:44:23.628Z,18.30
2018-05-17T04:46:49.865Z,19.20
2018-05-17T04:49:16.096Z,19.73
2018-05-17T04:51:42.354Z,19.92
2018-05-17T04:54:08.627Z,20.05
2018-05-17T04:56:34.865Z,18.35
2018-05-17T04:59:01.125Z,18.25
2018-05-17T05:01:27.358Z,20.15
2018-05-17T05:03:54.649Z,20.90
2018-05-17T05:06:20.897Z,25.52
2018-05-17T05:08:47.134Z,18.30
2018-05-17T05:11:13.363Z,20.83
2018-05-17T05:13:39.599Z,21.55
2018-05-17T05:16:05.848Z,22.15
2018-05-17T05:18:32.157Z,23.20
2018-05-17T05:20:58.431Z,22.20
2018-05-17T05:23:25.049Z,22.50
2018-05-17T05:25:51.281Z,23.33
2018-05-17T05:28:17.516Z,29.63
2018-05-17T05:30:43.795Z,21.40
2018-05-17T05:33:10.024Z,18.80
2018-05-17T05:35:36.258Z,21.60
2018-05-17T05:38:03.442Z,25.40
2018-05-17T05:40:29.713Z,26.67
2018-05-17T05:42:56.613Z,23.15
2018-05-17T05:45:22.906Z,19.08
2018-05-17T05:47:49.139Z,16.08
2018-05-17T05:50:15.398Z,17.77
2018-05-17T05:52:41.591Z,16.80
2018-05-17T05:55:07.855Z,16.80
2018-05-17T05:57:35.533Z,16.20
2018-05-17T06:00:02.976Z,18.00
2018-05-17T06:02:29.273Z,17.77
2018-05-17T06:04:55.854Z,18.90
2018-05-17T06:07:22.192Z,17.30
2018-05-17T06:09:48.399Z,17.27
2018-05-17T06:12:14.614Z,18.75
2018-05-17T06:14:40.919Z,21.83
2018-05-17T06:17:07.168Z,21.65
2018-05-17T06:19:33.401Z,23.05
2018-05-17T06:21:59.633Z,23.87
2018-05-17T06:24:25.874Z,26.85
2018-05-17T06:26:52.087Z,30.95
2018-05-17T06:29:18.339Z,35.40
2018-05-17T06:31:44.931Z,33.28
2018-05-17T06:34:11.259Z,34.55
2018-05-17T06:36:37.553Z,29.05
2018-05-17T06:39:04.652Z,32.50
2018-05-17T06:41:30.874Z,35.83
2018-05-17T06:43:57.216Z,37.50
2018-05-17T06:46:23.752Z,43.47
2018-05-17T06:48:49.973Z,44.85
2018-05-17T06:51:16.246Z,38.67
2018-05-17T06:53:42.872Z,26.17
2018-05-17T06:56:09.493Z,21.75
2018-05-17T06:58:35.748Z,18.43
2018-05-17T07:01:02.097Z,18.58
2018-05-17T07:03:28.230Z,19.42
2018-05-17T07:05:54.476Z,23.10
2018-05-17T07:08:20.734Z,20.73
2018-05-17T07:10:46.945Z,20.70
2018-05-17T07:13:13.214Z,19.87
2018-05-17T07:15:46.926Z,18.87
2018-05-17T07:18:13.647Z,19.30
2018-05-17T07:20:39.779Z,18.23
2018-05-17T07:23:06.361Z,17.52
2018-05-17T07:25:32.631Z,17.50
2018-05-17T07:27:58.894Z,15.63
2018-05-17T07:30:25.117Z,15.03
2018-05-17T07:32:52.609Z,19.00
2018-05-17T07:35:18.806Z,17.17
2018-05-17T07:37:45.411Z,16.17
2018-05-17T07:40:11.637Z,18.47
2018-05-17T07:42:37.838Z,18.70
2018-05-17T07:45:04.111Z,18.80
2018-05-17T07:47:30.759Z,15.75
2018-05-17T07:49:57.397Z,16.23
2018-05-17T07:52:23.656Z,16.10
2018-05-17T07:54:49.893Z,17.30
2018-05-17T07:57:16.165Z,18.23
2018-05-17T07:59:42.382Z,19.53
2018-05-17T08:02:08.635Z,29.40
2018-05-17T08:04:34.851Z,35.40
2018-05-17T08:07:01.104Z,35.33
2018-05-17T08:09:27.427Z,25.20
2018-05-17T08:11:53.622Z,25.27
2018-05-17T08:14:19.830Z,19.80
2018-05-17T08:16:46.118Z,18.23
2018-05-17T08:19:12.355Z,18.33
2018-05-17T08:21:38.628Z,14.40
2018-05-17T08:24:04.868Z,17.27
2018-05-17T08:26:31.113Z,21.40
2018-05-17T08:28:57.376Z,18.73
2018-05-17T08:31:23.620Z,21.03
2018-05-17T08:33:49.867Z,17.73
2018-05-17T08:36:16.311Z,20.00
2018-05-17T08:38:42.727Z,19.23
2018-05-17T08:41:08.990Z,18.67
2018-05-17T08:43:36.269Z,18.37
2018-05-17T08:46:02.529Z,19.83
2018-05-17T08:48:28.774Z,23.73
2018-05-17T08:50:55.016Z,22.53
2018-05-17T08:53:21.266Z,18.87
2018-05-17T08:55:47.497Z,22.10
2018-05-17T08:58:13.765Z,23.80
2018-05-17T09:00:39.998Z,43.23
2018-05-17T09:03:06.279Z,48.77
2018-05-17T09:05:32.878Z,38.00
2018-05-17T09:07:59.104Z,37.37
2018-05-17T09:10:25.392Z,30.93
2018-05-17T09:12:51.635Z,28.67
2018-05-17T09:15:17.862Z,26.67
2018-05-17T09:17:44.153Z,22.50
2018-05-17T09:20:10.357Z,21.07
2018-05-17T09:22:36.571Z,18.37
2018-05-17T09:25:03.002Z,21.07
2018-05-17T09:27:29.241Z,22.37
2018-05-17T09:29:56.105Z,21.77
2018-05-17T09:32:22.336Z,22.67
2018-05-17T09:34:48.566Z,21.30
2018-05-17T09:37:14.808Z,21.67
2018-05-17T09:39:41.444Z,22.50
2018-05-17T09:42:08.085Z,21.93
2018-05-17T09:44:34.312Z,19.90
2018-05-17T09:47:00.930Z,19.33
2018-05-17T09:49:27.159Z,20.23
2018-05-17T09:51:53.390Z,23.80
2018-05-17T09:54:19.625Z,20.23
2018-05-17T09:56:45.854Z,19.07
2018-05-17T09:59:12.446Z,20.73
2018-05-17T10:01:38.753Z,21.53
2018-05-17T10:04:04.967Z,19.77
2018-05-17T10:06:31.180Z,24.23
2018-05-17T10:08:57.455Z,22.70
2018-05-17T10:11:23.919Z,27.00
2018-05-17T10:13:50.167Z,25.20
2018-05-17T10:16:16.775Z,26.67
2018-05-17T10:18:43.041Z,26.17
2018-05-17T10:21:09.672Z,25.40
2018-05-17T10:23:36.289Z,30.97
2018-05-17T10:26:02.541Z,28.57
2018-05-17T10:28:29.176Z,27.90
2018-05-17T10:30:55.775Z,27.87
2018-05-17T10:33:22.032Z,28.03
2018-05-17T10:35:48.245Z,27.73
2018-05-17T10:38:14.504Z,27.47
2018-05-17T10:40:40.764Z,28.00
2018-05-17T10:43:07.011Z,27.20
2018-05-17T10:45:33.255Z,26.83
2018-05-17T10:47:59.492Z,25.10
2018-05-17T10:50:25.773Z,28.60
2018-05-17T10:52:51.995Z,31.27
2018-05-17T10:55:18.307Z,26.37
2018-05-17T10:57:44.552Z,26.57
2018-05-17T11:00:10.800Z,27.40
2018-05-17T11:02:37.054Z,26.33
2018-05-17T11:05:03.281Z,26.53
2018-05-17T11:07:29.572Z,28.40
2018-05-17T11:09:55.823Z,27.97
2018-05-17T11:12:22.044Z,30.63
2018-05-17T11:14:48.913Z,29.90
2018-05-17T11:17:15.170Z,29.97
2018-05-17T11:19:42.065Z,29.87
2018-05-17T11:22:08.313Z,28.70
2018-05-17T11:24:35.256Z,28.40
2018-05-17T11:27:01.439Z,29.00
2018-05-17T11:29:27.639Z,29.40
2018-05-17T11:31:54.709Z,31.30
2018-05-17T11:34:20.879Z,29.17
2018-05-17T11:36:47.118Z,27.67
2018-05-17T11:39:13.364Z,26.67
2018-05-17T11:41:39.673Z,27.03
2018-05-17T11:44:06.061Z,27.60
2018-05-17T11:46:32.261Z,27.00
2018-05-17T11:48:59.440Z,28.37
2018-05-17T11:51:25.664Z,28.80
2018-05-17T11:53:51.884Z,27.67
2018-05-17T11:56:18.176Z,28.13
2018-05-17T11:58:44.417Z,28.20
2018-05-17T12:01:10.663Z,28.90
2018-05-17T12:03:37.707Z,29.10
2018-05-17T12:06:03.967Z,28.87
2018-05-17T12:08:30.189Z,28.47
2018-05-17T12:10:56.407Z,27.23
2018-05-17T12:13:22.633Z,24.03
2018-05-17T12:15:48.967Z,28.13
2018-05-17T12:18:15.276Z,24.50
2018-05-17T12:20:41.543Z,22.90
2018-05-17T12:23:07.864Z,22.23
2018-05-17T12:25:34.023Z,20.73
2018-05-17T12:28:00.280Z,24.63
2018-05-17T12:30:26.886Z,21.43
2018-05-17T12:32:53.132Z,21.17
2018-05-17T12:35:19.396Z,21.43
2018-05-17T12:37:45.641Z,21.23
2018-05-17T12:40:11.852Z,20.70
2018-05-17T12:42:38.095Z,20.83
2018-05-17T12:45:04.327Z,22.07
2018-05-17T12:47:30.597Z,22.23
2018-05-17T12:49:56.815Z,21.47
2018-05-17T12:52:23.031Z,23.37
2018-05-17T12:54:49.244Z,21.27
2018-05-17T12:57:15.527Z,23.40
2018-05-17T12:59:41.754Z,22.13
2018-05-17T13:02:07.977Z,23.30
2018-05-17T13:04:34.208Z,25.33
2018-05-17T13:07:00.496Z,23.87
2018-05-17T13:09:26.776Z,22.97
2018-05-17T13:11:53.356Z,24.13
2018-05-17T13:14:19.662Z,23.83
2018-05-17T13:16:45.899Z,23.70
2018-05-17T13:19:12.135Z,26.13
2018-05-17T13:21:38.390Z,25.93
2018-05-17T13:24:05.588Z,28.13
2018-05-17T13:26:31.795Z,27.27
2018-05-17T13:28:58.430Z,28.77
2018-05-17T13:31:24.728Z,31.53
2018-05-17T13:33:50.955Z,27.57
2018-05-17T13:36:17.233Z,29.00
2018-05-17T13:38:43.803Z,33.40
2018-05-17T13:41:10.030Z,28.20
2018-05-17T13:43:36.373Z,32.43
2018-05-17T13:46:02.628Z,30.07
2018-05-17T13:48:28.873Z,29.37
2018-05-17T13:50:55.505Z,31.87
2018-05-17T13:53:22.119Z,31.47
2018-05-17T13:55:48.388Z,30.83
2018-05-17T13:58:15.015Z,32.17
2018-05-17T14:00:41.643Z,30.87
2018-05-17T14:03:08.772Z,32.17
2018-05-17T14:05:35.003Z,34.37
2018-05-17T14:08:01.240Z,49.17
2018-05-17T14:10:27.466Z,34.03
2018-05-17T14:12:53.787Z,33.27
2018-05-17T14:15:20.064Z,34.37
2018-05-17T14:17:46.661Z,34.27
2018-05-17T14:20:12.928Z,34.77
2018-05-17T14:22:39.173Z,33.73
2018-05-17T14:25:05.401Z,34.60
2018-05-17T14:27:31.669Z,36.80
2018-05-17T14:29:57.964Z,34.47
2018-05-17T14:32:24.215Z,35.20
2018-05-17T14:34:50.492Z,35.27
2018-05-17T14:37:17.087Z,37.27
2018-05-17T14:39:43.339Z,35.80
2018-05-17T14:42:09.618Z,42.73
2018-05-17T14:44:35.861Z,32.40
2018-05-17T14:47:02.093Z,33.70
2018-05-17T14:49:28.339Z,30.97
2018-05-17T14:51:54.589Z,31.43
2018-05-17T14:54:20.821Z,31.87
2018-05-17T14:56:47.047Z,30.60
2018-05-17T14:59:13.246Z,29.60
2018-05-17T15:01:39.533Z,28.87
2018-05-17T15:04:06.329Z,30.20
2018-05-17T15:06:32.601Z,27.37
2018-05-17T15:08:58.858Z,27.60
2018-05-17T15:11:25.172Z,28.17
2018-05-17T15:13:51.414Z,28.70
2018-05-17T15:16:17.638Z,35.33
2018-05-17T15:18:43.963Z,28.93
2018-05-17T15:21:10.254Z,29.30
2018-05-17T15:23:36.896Z,30.33
2018-05-17T15:26:03.567Z,29.87
2018-05-17T15:28:29.849Z,28.53
2018-05-17T15:30:56.132Z,31.03
2018-05-17T15:33:22.453Z,27.73
2018-05-17T15:35:48.807Z,29.63
2018-05-17T15:38:15.012Z,27.57
2018-05-17T15:40:41.306Z,25.43
2018-05-17T15:43:07.942Z,26.77
2018-05-17T15:45:34.589Z,29.97
2018-05-17T15:48:01.278Z,30.00
2018-05-17T15:50:27.584Z,28.23
2018-05-17T15:52:53.913Z,27.70
2018-05-17T15:55:20.173Z,27.30
2018-05-17T15:57:46.466Z,27.50
2018-05-17T16:00:12.777Z,30.00
2018-05-17T16:02:39.393Z,29.60
2018-05-17T16:05:05.669Z,28.20
2018-05-17T16:07:31.916Z,31.10
2018-05-17T16:09:58.755Z,28.80
2018-05-17T16:12:25.075Z,30.30
2018-05-17T16:14:52.373Z,33.10
2018-05-17T16:17:18.557Z,32.20
2018-05-17T16:19:44.787Z,31.37
2018-05-17T16:22:11.092Z,31.00
2018-05-17T16:24:37.382Z,35.13
2018-05-17T16:27:03.672Z,32.93
2018-05-17T16:29:29.930Z,33.83
2018-05-17T16:31:56.139Z,31.87
2018-05-17T16:34:22.427Z,31.50
2018-05-17T16:36:49.278Z,34.43
2018-05-17T16:39:15.555Z,32.00
2018-05-17T16:41:41.779Z,33.27
2018-05-17T16:44:08.007Z,31.80
2018-05-17T16:46:34.258Z,30.60
2018-05-17T16:49:00.475Z,34.10
2018-05-17T16:51:26.780Z,29.33
2018-05-17T16:53:53.057Z,32.27
2018-05-17T16:56:19.282Z,30.30
2018-05-17T16:58:46.691Z,31.40
2018-05-17T17:01:12.963Z,32.40
2018-05-17T17:03:39.214Z,32.70
2018-05-17T17:06:05.431Z,33.97
2018-05-17T17:08:32.104Z,30.30
2018-05-17T17:10:58.377Z,34.03
2018-05-17T17:13:24.661Z,30.77
2018-05-17T17:15:50.951Z,29.77
2018-05-17T17:18:17.565Z,28.50
2018-05-17T17:20:44.558Z,32.83
2018-05-17T17:23:10.828Z,32.17
2018-05-17T17:25:37.122Z,30.20
2018-05-17T17:28:03.454Z,31.70
2018-05-17T17:30:29.747Z,27.80
2018-05-17T17:32:56.393Z,28.33
2018-05-17T17:35:23.055Z,31.53
2018-05-17T17:37:49.325Z,31.47
2018-05-17T17:40:15.595Z,28.70
2018-05-17T17:42:41.890Z,31.67
2018-05-17T17:45:08.136Z,31.43
2018-05-17T17:47:34.354Z,33.87
2018-05-17T17:50:00.688Z,34.27
2018-05-17T17:52:26.849Z,33.83
2018-05-17T17:54:53.198Z,31.97
2018-05-17T17:57:19.504Z,37.03
2018-05-17T17:59:46.630Z,32.37
2018-05-17T18:02:12.861Z,31.03
2018-05-17T18:04:39.168Z,32.53
2018-05-17T18:07:05.680Z,35.30
2018-05-17T18:09:31.923Z,33.57
2018-05-17T18:11:58.188Z,30.87
2018-05-17T18:14:25.443Z,38.20
2018-05-17T18:16:51.748Z,33.67
2018-05-17T18:19:18.042Z,37.60
2018-05-17T18:21:44.395Z,32.83
2018-05-17T18:24:10.713Z,36.03
2018-05-17T18:26:37.006Z,35.57
2018-05-17T18:29:03.295Z,36.13
2018-05-17T18:31:29.564Z,36.57
2018-05-17T18:33:56.413Z,37.07
2018-05-17T18:36:22.725Z,40.63
2018-05-17T18:38:48.952Z,36.10
2018-05-17T18:41:15.364Z,39.53
2018-05-17T18:43:41.644Z,30.07
2018-05-17T18:46:07.922Z,35.30
2018-05-17T18:48:34.249Z,38.13
2018-05-17T18:51:00.547Z,37.70
2018-05-17T18:53:26.874Z,32.83
2018-05-17T18:55:53.235Z,35.10
2018-05-17T18:58:19.847Z,35.00
2018-05-17T19:00:46.162Z,37.30
2018-05-17T19:03:12.445Z,33.33
2018-05-17T19:05:38.832Z,37.77
2018-05-17T19:08:05.128Z,37.37
2018-05-17T19:10:32.821Z,33.20
2018-05-17T19:12:59.167Z,34.60
2018-05-17T19:15:25.457Z,34.93
2018-05-17T19:17:52.636Z,35.27
2018-05-17T19:20:19.026Z,37.07
2018-05-17T19:22:45.228Z,33.70
2018-05-17T19:25:11.505Z,31.53
2018-05-17T19:27:37.884Z,35.30
2018-05-17T19:30:04.225Z,35.57
2018-05-17T19:32:30.478Z,31.50
2018-05-17T19:34:57.113Z,35.20
2018-05-17T19:37:23.823Z,36.10
2018-05-17T19:39:50.062Z,40.07
2018-05-17T19:42:16.316Z,33.13
2018-05-17T19:44:42.537Z,32.67
2018-05-17T19:47:09.193Z,35.00
2018-05-17T19:49:35.443Z,34.10
2018-05-17T19:52:02.693Z,33.77
2018-05-17T19:54:31.264Z,33.80
2018-05-17T19:56:57.534Z,33.90
2018-05-17T19:59:23.939Z,36.13
2018-05-17T20:01:50.227Z,35.40
2018-05-17T20:04:16.905Z,35.73
2018-05-17T20:06:44.050Z,32.70
2018-05-17T20:09:10.340Z,30.13
2018-05-17T20:11:37.004Z,36.60
2018-05-17T20:14:03.341Z,34.93
2018-05-17T20:16:29.695Z,33.63
2018-05-17T20:18:55.975Z,33.43
2018-05-17T20:21:22.346Z,38.57
2018-05-17T20:23:48.604Z,30.50
2018-05-17T20:26:14.880Z,35.80
2018-05-17T20:28:41.145Z,35.40
2018-05-17T20:31:07.504Z,33.93
2018-05-17T20:33:35.602Z,31.87
2018-05-17T20:36:02.551Z,37.87
2018-05-17T20:38:28.800Z,32.07
2018-05-17T20:40:55.132Z,29.57
2018-05-17T20:43:22.168Z,34.17
2018-05-17T20:45:49.373Z,34.37
2018-05-17T20:48:16.653Z,31.73
2018-05-17T20:50:44.582Z,35.60
2018-05-17T20:53:12.793Z,32.70
2018-05-17T20:55:39.061Z,33.80
2018-05-17T20:58:05.329Z,34.80
2018-05-17T21:00:31.607Z,34.13
2018-05-17T21:02:58.558Z,31.83
2018-05-17T21:05:24.801Z,30.73
2018-05-17T21:07:51.121Z,36.20
2018-05-17T21:10:18.209Z,34.10
2018-05-17T21:12:44.520Z,31.97
2018-05-17T21:15:10.782Z,30.40
2018-05-17T21:17:37.449Z,31.97
2018-05-17T21:20:03.793Z,30.83
2018-05-17T21:22:30.046Z,31.37
2018-05-17T21:24:56.319Z,33.90
2018-05-17T21:27:22.987Z,30.77
2018-05-17T21:29:49.250Z,30.37
2018-05-17T21:32:15.527Z,31.37
2018-05-17T21:34:42.521Z,32.20
2018-05-17T21:37:15.809Z,36.03
2018-05-17T21:39:42.540Z,31.70
2018-05-17T21:42:09.673Z,32.93
2018-05-17T21:44:35.932Z,32.00
2018-05-17T21:47:02.158Z,31.03
2018-05-17T21:49:28.434Z,31.27
2018-05-17T21:51:55.107Z,33.10
2018-05-17T21:54:21.338Z,29.87
2018-05-17T21:56:48.632Z,27.30
2018-05-17T21:59:14.938Z,28.53
2018-05-17T22:01:41.172Z,27.60
2018-05-17T22:04:07.417Z,27.90
2018-05-17T22:06:34.161Z,32.00
2018-05-17T22:09:00.409Z,27.77
2018-05-17T22:11:26.642Z,28.20
2018-05-17T22:13:53.754Z,27.83
2018-05-17T22:16:20.921Z,28.33
2018-05-17T22:18:47.200Z,28.23
2018-05-17T22:21:14.245Z,31.43
2018-05-17T22:23:40.975Z,30.77
2018-05-17T22:26:07.246Z,32.57
2018-05-17T22:28:33.501Z,33.00
2018-05-17T22:31:00.580Z,34.17
2018-05-17T22:33:27.647Z,36.27
2018-05-17T22:35:54.570Z,39.73
2018-05-17T22:38:21.533Z,32.63
2018-05-17T22:40:47.742Z,33.90
2018-05-17T22:43:14.017Z,37.83
2018-05-17T22:45:46.511Z,33.63
2018-05-17T22:48:12.746Z,36.17
2018-05-17T22:50:39.026Z,36.40
2018-05-17T22:53:05.281Z,35.40
2018-05-17T22:55:31.920Z,33.33
2018-05-17T22:58:11.456Z,34.50
2018-05-17T23:00:38.110Z,33.90
2018-05-17T23:03:04.738Z,35.50
2018-05-17T23:05:31.006Z,34.50
2018-05-17T23:07:57.278Z,31.27
2018-05-17T23:10:23.529Z,30.73
2018-05-17T23:12:50.730Z,32.47
2018-05-17T23:15:16.954Z,30.67
2018-05-17T23:17:43.249Z,38.23
2018-05-17T23:20:11.873Z,36.08
2018-05-17T23:22:41.064Z,30.40
2018-05-17T23:25:07.341Z,29.97
2018-05-17T23:27:38.371Z,26.57
2018-05-17T23:30:04.623Z,28.40
2018-05-17T23:32:31.827Z,27.95
2018-05-17T23:34:58.083Z,28.20
2018-05-17T23:37:24.298Z,25.83
2018-05-17T23:39:50.591Z,27.55
2018-05-17T23:42:17.173Z,28.17
2018-05-17T23:44:43.398Z,30.70
2018-05-17T23:47:09.640Z,32.70
2018-05-17T23:49:35.904Z,28.47
2018-05-17T23:52:02.120Z,31.10
2018-05-17T23:54:28.380Z,29.03
2018-05-17T23:56:54.625Z,25.62
2018-05-17T23:59:20.850Z,31.50
